Time;durP1;ratioP1;P1;durP2;ratioP2;P2;SDS_P1;SDS_P2;PMS_P1;PMS_P2;Temp;Humidity;BMP_temperature;BMP_pressure;BME280_temperature;BME280_humidity;BME280_pressure;Samples;Min_cycle;Max_cycle;Signal;HPM_P1;HPM_P2
2022/08/26 00:01:27;;;;;;;16.98;7.85;;;;;;;22.57;93.33;99977.72;5105603;28;20063;-65
2022/08/26 00:03:53;;;;;;;23.23;8.88;;;;;;;22.52;93.51;99972.91;5103926;28;20078;-65
2022/08/26 00:06:19;;;;;;;23.05;8.20;;;;;;;22.50;93.14;99972.28;5104978;28;20024;-65
2022/08/26 00:08:45;;;;;;;24.23;8.05;;;;;;;22.45;93.06;99963.88;5103845;28;20035;-63
2022/08/26 00:11:11;;;;;;;18.50;7.90;;;;;;;22.32;92.87;99944.84;5103496;28;20039;-66
2022/08/26 00:13:38;;;;;;;21.65;8.30;;;;;;;22.40;92.74;99962.88;5105210;28;20023;-65
2022/08/26 00:16:06;;;;;;;20.77;8.93;;;;;;;22.38;93.67;99972.13;5102662;28;20087;-65
2022/08/26 00:18:32;;;;;;;21.75;8.48;;;;;;;22.35;93.64;99969.00;5103774;28;20031;-65
2022/08/26 00:20:58;;;;;;;16.23;8.10;;;;;;;22.34;94.28;99975.50;5106242;28;20031;-66
2022/08/26 00:23:23;;;;;;;15.43;7.90;;;;;;;22.28;94.41;99965.47;5104656;28;20035;-65
2022/08/26 00:25:49;;;;;;;19.85;8.02;;;;;;;22.25;94.57;99971.38;5102851;28;20050;-65
2022/08/26 00:28:14;;;;;;;26.33;8.68;;;;;;;22.22;94.64;99971.78;5104026;28;20030;-64
2022/08/26 00:30:40;;;;;;;19.58;9.20;;;;;;;22.13;95.18;99970.38;5103335;28;20184;-65
2022/08/26 00:33:06;;;;;;;19.58;8.32;;;;;;;22.09;94.96;99960.94;5104897;28;20068;-66
2022/08/26 00:35:32;;;;;;;15.35;8.00;;;;;;;22.05;95.20;99967.88;5105567;27;20031;-65
2022/08/26 00:37:59;;;;;;;19.55;8.52;;;;;;;22.07;95.68;99974.81;5105218;28;20475;-65
2022/08/26 00:40:30;;;;;;;20.98;8.45;;;;;;;21.98;96.01;99967.91;5105063;28;20058;-66
2022/08/26 00:42:56;;;;;;;21.88;8.25;;;;;;;22.01;96.35;99972.94;5103171;28;20026;-65
2022/08/26 00:45:21;;;;;;;20.30;8.82;;;;;;;21.96;96.31;99961.00;5104868;27;20027;-65
2022/08/26 00:47:59;;;;;;;17.00;7.20;;;;;;;21.86;95.99;99960.63;5104746;28;20035;-65
2022/08/26 00:50:29;;;;;;;18.88;8.02;;;;;;;21.90;96.43;99976.31;5103449;28;20028;-65
2022/08/26 00:52:58;;;;;;;21.75;8.35;;;;;;;21.87;96.63;99975.94;5102814;28;20691;-66
2022/08/26 00:55:32;;;;;;;16.60;8.43;;;;;;;21.83;96.16;99977.44;5105214;27;20036;-65
2022/08/26 00:57:59;;;;;;;18.17;7.72;;;;;;;21.79;95.81;99973.44;5104148;28;20123;-65
2022/08/26 01:00:28;;;;;;;18.98;7.32;;;;;;;21.78;95.13;99977.22;5104505;28;20023;-65
2022/08/26 01:02:55;;;;;;;20.45;7.55;;;;;;;21.75;95.16;99967.56;5104622;28;20027;-64
2022/08/26 01:05:22;;;;;;;15.55;7.18;;;;;;;21.74;94.48;99984.16;5104017;28;20042;-65
2022/08/26 01:07:48;;;;;;;20.55;7.75;;;;;;;21.65;94.02;99971.75;5107179;27;20047;-65
2022/08/26 01:10:18;;;;;;;19.02;7.05;;;;;;;21.69;94.21;99982.03;5104355;28;20031;-65
2022/08/26 01:12:58;;;;;;;24.05;7.82;;;;;;;21.71;94.32;99979.09;5104290;28;20509;-64
2022/08/26 01:15:29;;;;;;;23.52;7.47;;;;;;;21.68;94.29;99983.09;5105376;27;20534;-64
2022/08/26 01:17:57;;;;;;;26.05;7.40;;;;;;;21.69;93.71;99978.47;5105050;27;20106;-65
2022/08/26 01:20:50;;;;;;;22.75;7.53;;;;;;;21.67;93.88;99975.94;5104180;28;20015;-65
2022/08/26 01:23:15;;;;;;;26.65;7.93;;;;;;;21.66;94.00;99979.75;5101943;28;20105;-65
2022/08/26 01:25:47;;;;;;;15.23;7.30;;;;;;;21.62;94.30;99967.59;5104208;28;20045;-65
2022/08/26 01:28:20;;;;;;;16.98;6.80;;;;;;;21.65;94.21;99967.16;5104471;28;20027;-65
2022/08/26 01:30:51;;;;;;;21.55;7.53;;;;;;;21.64;94.47;99970.09;5104364;28;20031;-65
2022/08/26 01:33:24;;;;;;;18.70;7.47;;;;;;;21.62;94.39;99962.13;5101296;28;20531;-63
2022/08/26 01:35:50;;;;;;;19.33;7.30;;;;;;;21.55;94.40;99964.03;5103635;28;20043;-65
2022/08/26 01:38:17;;;;;;;16.30;8.18;;;;;;;21.60;94.49;99972.41;5101277;28;20028;-65
2022/08/26 01:40:44;;;;;;;15.23;6.68;;;;;;;21.59;94.31;99962.56;5108047;28;20047;-65
2022/08/26 01:43:15;;;;;;;19.25;7.18;;;;;;;21.58;94.30;99966.34;5107660;28;20038;-64
2022/08/26 01:45:43;;;;;;;16.02;6.65;;;;;;;21.57;94.39;99963.81;5106148;28;20095;-66
2022/08/26 01:48:24;;;;;;;26.85;8.15;;;;;;;21.58;94.26;99970.94;5107964;28;20091;-64
2022/08/26 01:50:51;;;;;;;23.77;7.53;;;;;;;21.52;94.14;99955.44;5108720;27;20827;-65
2022/08/26 01:53:19;;;;;;;25.17;6.88;;;;;;;21.57;94.33;99963.81;5108435;27;20027;-64
2022/08/26 01:55:50;;;;;;;16.25;6.68;;;;;;;21.57;94.18;99964.63;5108501;28;20058;-65
2022/08/26 01:58:26;;;;;;;18.20;7.07;;;;;;;21.57;94.14;99955.63;5107259;28;20161;-65
2022/08/26 02:00:53;;;;;;;20.92;7.13;;;;;;;21.55;94.35;99949.53;5108240;27;20030;-66
2022/08/26 02:03:21;;;;;;;30.30;7.55;;;;;;;21.58;93.91;99960.03;5107234;27;20034;-66
2022/08/26 02:05:49;;;;;;;16.98;6.55;;;;;;;21.62;93.74;99953.09;5108549;27;20462;-65
2022/08/26 02:08:16;;;;;;;26.75;7.15;;;;;;;21.62;93.92;99953.09;5107274;28;20640;-64
2022/08/26 02:10:42;;;;;;;15.23;7.10;;;;;;;21.62;93.40;99961.28;5108009;27;20486;-67
2022/08/26 02:13:09;;;;;;;21.35;6.63;;;;;;;21.64;93.06;99953.72;5107054;28;20502;-66
2022/08/26 02:15:35;;;;;;;21.63;7.32;;;;;;;21.63;92.99;99952.03;5107911;28;20110;-66
2022/08/26 02:18:03;;;;;;;22.90;6.90;;;;;;;21.66;92.99;99954.31;5107688;28;20038;-66
2022/08/26 02:20:29;;;;;;;24.73;6.57;;;;;;;21.63;92.92;99946.56;5108146;27;20458;-66
2022/08/26 02:22:55;;;;;;;21.27;7.10;;;;;;;21.59;92.76;99939.88;5107422;28;20016;-65
2022/08/26 02:25:40;;;;;;;24.33;6.82;;;;;;;21.66;92.79;99946.13;5107094;28;20034;-67
2022/08/26 02:28:06;;;;;;;20.15;6.47;;;;;;;21.66;92.34;99946.13;5107739;28;20039;-66
2022/08/26 02:30:32;;;;;;;21.25;6.95;;;;;;;21.66;91.94;99940.69;5107119;27;20049;-65
2022/08/26 02:33:02;;;;;;;23.58;6.68;;;;;;;21.69;91.73;99948.44;5107916;28;20032;-66
2022/08/26 02:35:29;;;;;;;22.00;7.57;;;;;;;21.69;91.68;99946.56;5106134;28;20899;-65
2022/08/26 02:37:55;;;;;;;18.58;7.72;;;;;;;21.72;91.38;99948.00;5106921;28;20054;-66
2022/08/26 02:40:24;;;;;;;24.27;7.07;;;;;;;21.70;91.03;99944.69;5105517;28;20549;-65
2022/08/26 02:42:49;;;;;;;21.92;7.18;;;;;;;21.70;91.38;99942.75;5107385;28;20497;-65
2022/08/26 02:45:16;;;;;;;20.75;6.95;;;;;;;21.69;91.44;99941.09;5106806;28;20023;-64
2022/08/26 02:47:43;;;;;;;25.77;6.88;;;;;;;21.64;91.11;99948.25;5107503;27;20024;-66
2022/08/26 02:50:09;;;;;;;26.25;7.55;;;;;;;21.69;91.10;99952.03;5106393;28;20016;-65
2022/08/26 02:52:35;;;;;;;18.40;6.18;;;;;;;21.70;90.94;99958.31;5106840;28;20114;-64
2022/08/26 02:55:01;;;;;;;18.55;7.13;;;;;;;21.69;90.69;99957.47;5106011;28;20027;-66
2022/08/26 02:57:27;;;;;;;23.38;7.13;;;;;;;21.67;90.83;99947.84;5107022;28;20039;-65
2022/08/26 02:59:52;;;;;;;19.83;6.82;;;;;;;21.66;90.72;99944.25;5107190;28;20394;-64
2022/08/26 03:02:18;;;;;;;26.58;6.85;;;;;;;21.68;90.91;99947.63;5108986;27;20031;-66
2022/08/26 03:04:43;;;;;;;23.88;7.43;;;;;;;21.61;91.16;99943.22;5107165;28;20072;-64
2022/08/26 03:07:08;;;;;;;23.23;6.70;;;;;;;21.64;90.50;99948.25;5105032;28;20024;-64
2022/08/26 03:09:34;;;;;;;20.38;6.95;;;;;;;21.58;90.87;99943.66;5105051;28;20077;-65
2022/08/26 03:12:00;;;;;;;18.17;6.75;;;;;;;21.63;90.77;99949.28;5106699;28;20027;-65
2022/08/26 03:14:25;;;;;;;21.58;6.45;;;;;;;21.63;90.55;99949.28;5106141;27;20035;-65
2022/08/26 03:16:53;;;;;;;20.50;6.72;;;;;;;21.60;90.56;99944.28;5106901;28;20070;-65
2022/08/26 03:19:19;;;;;;;18.92;6.95;;;;;;;21.60;90.35;99942.38;5106075;28;20027;-65
2022/08/26 03:21:45;;;;;;;28.70;7.18;;;;;;;21.61;90.25;99944.03;5105806;28;20042;-65
2022/08/26 03:24:11;;;;;;;21.65;7.35;;;;;;;21.55;90.20;99942.19;5104277;28;20482;-66
2022/08/26 03:26:37;;;;;;;18.85;6.45;;;;;;;21.57;89.97;99942.00;5106281;28;20031;-65
2022/08/26 03:31:48;;;;;;;22.58;8.02;;;;;;;21.53;90.01;99944.28;5106786;28;20065;-66
2022/08/26 03:34:14;;;;;;;20.23;7.05;;;;;;;21.49;89.54;99932.13;5105917;27;20035;-64
2022/08/26 03:36:39;;;;;;;18.77;7.20;;;;;;;21.48;89.78;99938.63;5104598;28;20034;-65
2022/08/26 03:39:05;;;;;;;22.65;6.53;;;;;;;21.46;89.80;99938.03;5106013;28;20110;-66
2022/08/26 03:41:34;;;;;;;15.98;6.72;;;;;;;21.46;89.71;99939.91;5105764;28;20052;-65
2022/08/26 03:44:00;;;;;;;16.08;6.85;;;;;;;21.43;89.47;99923.94;5103561;27;20027;-66
2022/08/26 03:46:25;;;;;;;20.95;7.10;;;;;;;21.45;89.38;99927.31;5104660;28;20030;-65
2022/08/26 03:48:51;;;;;;;14.07;6.50;;;;;;;21.50;89.04;99932.94;5106314;28;20063;-66
2022/08/26 03:51:18;;;;;;;15.10;6.28;;;;;;;21.51;88.93;99935.47;5105005;28;20124;-65
2022/08/26 03:53:44;;;;;;;23.27;7.38;;;;;;;21.44;88.87;99920.19;5106154;27;20490;-65
2022/08/26 03:56:10;;;;;;;17.42;6.13;;;;;;;21.51;88.93;99929.19;5106189;28;20471;-66
2022/08/26 03:58:36;;;;;;;21.67;6.90;;;;;;;21.51;89.13;99929.19;5106559;28;20047;-65
2022/08/26 04:01:03;;;;;;;12.85;6.05;;;;;;;21.52;88.95;99934.44;5103125;28;20034;-65
2022/08/26 04:06:13;;;;;;;;;;;;;;;21.51;89.23;99935.47;5107255;28;21342;-65
2022/08/26 04:08:38;;;;;;;17.88;6.05;;;;;;;21.53;89.65;99932.53;5106321;28;19911;-65
2022/08/26 04:11:05;;;;;;;19.15;6.68;;;;;;;21.54;89.47;99929.59;5109099;27;20088;-65
2022/08/26 04:13:31;;;;;;;17.58;6.55;;;;;;;21.54;89.51;99934.22;5104899;28;20019;-65
2022/08/26 04:15:56;;;;;;;13.95;6.88;;;;;;;21.54;89.39;99936.97;5105474;28;20474;-65
2022/08/26 04:18:22;;;;;;;19.60;7.03;;;;;;;21.54;89.66;99931.50;5106745;28;20023;-65
2022/08/26 04:20:49;;;;;;;15.68;6.70;;;;;;;21.59;89.38;99937.13;5106430;28;20040;-64
2022/08/26 04:23:15;;;;;;;25.38;6.55;;;;;;;21.59;89.07;99946.16;5106342;28;20039;-64
2022/08/26 04:25:42;;;;;;;19.33;6.95;;;;;;;21.61;89.28;99948.69;5106198;28;20044;-65
2022/08/26 04:28:08;;;;;;;17.98;6.43;;;;;;;21.61;89.14;99938.59;5106750;28;20030;-63
2022/08/26 04:30:37;;;;;;;20.55;7.13;;;;;;;21.60;88.81;99925.19;5107039;27;20079;-65
2022/08/26 04:33:03;;;;;;;19.42;6.63;;;;;;;21.70;88.37;99939.22;5106323;27;20025;-66
2022/08/26 04:35:29;;;;;;;18.92;6.22;;;;;;;21.75;88.11;99928.50;5106403;28;20047;-66
2022/08/26 04:37:55;;;;;;;19.45;6.55;;;;;;;21.77;87.36;99929.13;5105977;28;20042;-64
2022/08/26 04:40:21;;;;;;;16.08;6.30;;;;;;;21.87;87.25;99932.25;5105756;28;20055;-65
2022/08/26 04:42:47;;;;;;;22.83;7.32;;;;;;;21.91;86.11;99930.75;5108383;27;20028;-66
2022/08/26 04:45:13;;;;;;;18.38;6.68;;;;;;;21.99;85.57;99941.44;5105730;28;20719;-66
2022/08/26 04:47:38;;;;;;;19.20;6.72;;;;;;;22.00;85.09;99918.53;5106320;28;20031;-66
2022/08/26 04:50:05;;;;;;;24.63;7.10;;;;;;;22.06;84.38;99929.41;5106001;28;20100;-65
2022/08/26 04:52:31;;;;;;;22.60;7.10;;;;;;;22.19;83.56;99932.06;5106254;27;20107;-66
2022/08/26 04:54:56;;;;;;;15.07;6.95;;;;;;;22.23;83.11;99921.56;5105802;28;20106;-64
2022/08/26 04:57:22;;;;;;;20.77;5.80;;;;;;;22.34;82.64;99934.50;5104410;28;20183;-65
2022/08/26 04:59:47;;;;;;;23.38;6.03;;;;;;;22.40;81.35;99933.63;5106408;28;20039;-64
2022/08/26 05:02:13;;;;;;;13.50;6.03;;;;;;;22.52;81.51;99931.06;5105450;28;20027;-64
2022/08/26 05:04:42;;;;;;;12.88;6.10;;;;;;;22.59;81.17;99938.16;5108848;27;20027;-65
2022/08/26 05:07:08;;;;;;;13.93;6.03;;;;;;;22.64;80.32;99935.63;5105912;28;20022;-66
2022/08/26 05:09:33;;;;;;;16.02;5.95;;;;;;;22.54;79.62;99905.19;5105502;28;20035;-64
2022/08/26 05:11:59;;;;;;;15.60;6.80;;;;;;;22.75;79.40;99934.03;5103309;28;20076;-66
2022/08/26 05:14:25;;;;;;;18.60;7.18;;;;;;;22.80;79.08;99942.44;5107487;27;20039;-65
2022/08/26 05:16:51;;;;;;;17.45;6.47;;;;;;;22.84;78.53;99936.28;5104253;28;20043;-65
2022/08/26 05:19:17;;;;;;;11.48;6.47;;;;;;;22.90;77.64;99935.41;5103890;28;20402;-65
2022/08/26 05:21:43;;;;;;;13.52;5.88;;;;;;;22.97;77.02;99936.19;5105707;28;20046;-65
2022/08/26 05:24:11;;;;;;;14.60;5.53;;;;;;;23.07;76.03;99936.50;5105476;28;20111;-67
2022/08/26 05:26:37;;;;;;;16.65;6.53;;;;;;;23.06;75.52;99928.53;5105665;28;20579;-65
2022/08/26 05:29:04;;;;;;;16.60;5.93;;;;;;;23.15;75.66;99933.47;5106071;28;20053;-66
2022/08/26 05:31:31;;;;;;;19.15;6.28;;;;;;;23.22;74.54;99939.75;5104552;28;20450;-64
2022/08/26 05:33:58;;;;;;;14.38;6.30;;;;;;;23.32;75.14;99934.63;5105160;28;20032;-64
2022/08/26 05:36:27;;;;;;;19.10;6.85;;;;;;;23.42;74.06;99942.31;5104638;28;20168;-65
2022/08/26 05:38:54;;;;;;;18.40;6.03;;;;;;;23.50;73.79;99942.00;5104863;28;20036;-65
2022/08/26 05:41:23;;;;;;;16.02;5.55;;;;;;;23.54;73.29;99932.28;5104072;28;20083;-66
2022/08/26 05:43:50;;;;;;;24.23;6.63;;;;;;;23.64;71.09;99938.88;5101940;28;20556;-65
2022/08/26 05:46:15;;;;;;;18.75;6.15;;;;;;;23.76;71.26;99937.06;5104216;28;22994;-64
2022/08/26 05:48:41;;;;;;;16.80;5.72;;;;;;;23.83;71.12;99942.47;5104899;28;20123;-65
2022/08/26 05:51:08;;;;;;;21.75;6.57;;;;;;;23.92;70.44;99935.59;5102920;28;20122;-65
2022/08/26 05:53:36;;;;;;;15.75;5.82;;;;;;;24.09;70.06;99939.44;5104570;28;20019;-65
2022/08/26 05:56:03;;;;;;;14.57;6.63;;;;;;;24.17;69.48;99950.06;5104828;28;20027;-64
2022/08/26 05:58:28;;;;;;;19.15;6.22;;;;;;;24.23;68.68;99951.88;5103854;28;20411;-65
2022/08/26 06:01:00;;;;;;;21.38;6.30;;;;;;;24.25;68.76;99955.25;5104721;28;20058;-66
2022/08/26 06:03:27;;;;;;;15.45;6.07;;;;;;;24.20;68.21;99944.97;5103082;28;20027;-65
2022/08/26 06:05:56;;;;;;;15.07;5.93;;;;;;;24.26;68.14;99951.44;5104375;28;20029;-65
2022/08/26 06:08:21;;;;;;;15.52;5.80;;;;;;;24.27;68.25;99956.69;5103815;28;20036;-64
2022/08/26 06:10:58;;;;;;;10.02;5.18;;;;;;;24.28;68.28;99957.53;5105907;28;20024;-65
2022/08/26 06:13:26;;;;;;;15.50;5.82;;;;;;;24.31;68.21;99941.44;5105747;28;20039;-65
2022/08/26 06:15:53;;;;;;;14.10;5.18;;;;;;;24.44;67.34;99952.22;5107467;28;20035;-65
2022/08/26 06:18:26;;;;;;;12.90;5.22;;;;;;;24.50;66.76;99955.91;5105058;28;20035;-64
2022/08/26 06:20:53;;;;;;;14.93;6.17;;;;;;;24.56;66.99;99957.72;5103993;28;20104;-65
2022/08/26 06:26:03;;;;;;;;;;;;;;;24.76;67.03;99952.00;5111043;28;20043;-64
2022/08/26 06:28:29;;;;;;;19.15;6.05;;;;;;;24.84;66.44;99946.16;5107178;28;19919;-64
2022/08/26 06:30:54;;;;;;;19.77;6.13;;;;;;;25.08;65.22;99956.94;5111063;28;20023;-65
2022/08/26 06:33:22;;;;;;;20.33;5.63;;;;;;;25.28;64.37;99951.09;5110835;28;20023;-64
2022/08/26 06:35:49;;;;;;;13.20;6.13;;;;;;;25.43;62.04;99951.47;5110466;27;20122;-65
2022/08/26 06:38:15;;;;;;;12.25;6.30;;;;;;;25.59;61.58;99959.84;5108731;28;20023;-65
2022/08/26 06:40:49;;;;;;;17.80;6.18;;;;;;;25.78;60.55;99963.28;5109068;28;20453;-65
2022/08/26 06:43:17;;;;;;;22.67;5.72;;;;;;;25.94;59.96;99968.03;5107922;27;20024;-64
2022/08/26 06:45:44;;;;;;;14.77;5.30;;;;;;;26.08;58.93;99962.03;5107675;27;20394;-65
2022/08/26 06:48:11;;;;;;;17.48;5.95;;;;;;;26.22;58.30;99963.41;5107398;28;20031;-64
2022/08/26 06:50:37;;;;;;;17.50;5.68;;;;;;;26.36;57.59;99964.81;5106705;28;20042;-64
2022/08/26 06:53:02;;;;;;;21.58;6.30;;;;;;;26.56;56.96;99964.38;5108302;28;20416;-66
2022/08/26 06:55:28;;;;;;;19.02;5.97;;;;;;;26.72;55.47;99965.53;5107374;28;20036;-65
2022/08/26 06:57:55;;;;;;;15.80;5.75;;;;;;;26.89;55.58;99953.44;5107397;28;20023;-64
2022/08/26 07:00:21;;;;;;;16.05;4.97;;;;;;;27.07;54.62;99955.97;5107637;28;20437;-65
2022/08/26 07:02:46;;;;;;;14.77;5.28;;;;;;;27.22;54.06;99953.47;5107785;28;20036;-66
2022/08/26 07:05:12;;;;;;;23.13;6.55;;;;;;;27.37;53.49;99950.16;5106653;28;20027;-64
2022/08/26 07:07:37;;;;;;;25.08;5.70;;;;;;;27.53;52.54;99943.78;5108968;27;20027;-65
2022/08/26 07:10:04;;;;;;;17.73;5.50;;;;;;;27.63;52.02;99930.13;5107847;28;20031;-66
2022/08/26 07:12:30;;;;;;;17.63;5.13;;;;;;;27.85;51.97;99951.13;5106944;28;20126;-65
2022/08/26 07:14:56;;;;;;;16.75;5.40;;;;;;;27.99;51.41;99952.41;5106886;28;20070;-65
2022/08/26 07:17:21;;;;;;;15.80;5.35;;;;;;;28.12;51.02;99957.53;5106179;28;20027;-64
2022/08/26 07:19:47;;;;;;;22.15;5.80;;;;;;;28.19;51.04;99943.56;5106806;27;20106;-64
2022/08/26 07:22:13;;;;;;;17.95;5.78;;;;;;;28.39;50.88;99958.44;5106491;27;20020;-65
2022/08/26 07:24:40;;;;;;;17.13;5.55;;;;;;;28.50;50.75;99957.47;5106911;28;20027;-66
2022/08/26 07:27:09;;;;;;;17.52;5.22;;;;;;;28.61;49.81;99960.34;5107167;28;20201;-66
2022/08/26 07:29:36;;;;;;;16.23;5.28;;;;;;;28.67;49.95;99954.63;5105849;28;20395;-65
2022/08/26 07:32:03;;;;;;;18.55;5.40;;;;;;;28.71;49.84;99953.00;5107890;28;20545;-63
2022/08/26 07:34:30;;;;;;;17.85;5.72;;;;;;;28.76;49.58;99943.94;5106970;27;20039;-65
2022/08/26 07:36:56;;;;;;;18.60;5.22;;;;;;;28.77;49.23;99945.59;5107466;28;20114;-64
2022/08/26 07:39:23;;;;;;;16.45;5.25;;;;;;;28.78;49.60;99941.72;5106642;28;20165;-66
2022/08/26 07:41:50;;;;;;;12.55;5.55;;;;;;;28.76;49.42;99936.50;5105423;28;20413;-65
2022/08/26 07:44:16;;;;;;;19.33;5.88;;;;;;;28.86;49.47;99936.59;5106566;28;20035;-65
2022/08/26 07:46:42;;;;;;;9.43;5.03;;;;;;;28.94;49.30;99941.63;5106614;27;20550;-65
2022/08/26 07:49:07;;;;;;;15.77;6.00;;;;;;;29.02;48.79;99943.06;5107228;28;20212;-65
2022/08/26 07:51:34;;;;;;;11.70;4.63;;;;;;;29.11;48.94;99936.81;5106225;28;20030;-65
2022/08/26 07:53:59;;;;;;;13.23;4.72;;;;;;;29.23;48.28;99931.94;5106288;28;20031;-65
2022/08/26 07:56:25;;;;;;;13.68;5.03;;;;;;;29.33;47.94;99932.00;5106534;28;20034;-65
2022/08/26 07:58:52;;;;;;;20.17;5.40;;;;;;;29.44;47.67;99935.69;5106356;28;20065;-63
2022/08/26 08:01:19;;;;;;;15.70;5.00;;;;;;;29.56;47.62;99937.13;5106176;28;20097;-64
2022/08/26 08:03:45;;;;;;;18.90;5.90;;;;;;;29.61;46.88;99931.69;5106448;28;20050;-65
2022/08/26 08:06:11;;;;;;;16.95;5.30;;;;;;;29.50;46.67;99896.75;5107065;27;20028;-64
2022/08/26 08:08:39;;;;;;;20.77;5.75;;;;;;;29.74;46.82;99922.91;5105274;28;20037;-66
2022/08/26 08:11:04;;;;;;;20.67;4.72;;;;;;;29.86;46.68;99931.78;5106295;27;20087;-67
2022/08/26 08:13:30;;;;;;;15.15;5.00;;;;;;;29.97;46.57;99936.28;5105940;28;20114;-67
2022/08/26 08:15:55;;;;;;;12.68;4.53;;;;;;;30.05;46.20;99929.41;5106120;28;20031;-66
2022/08/26 08:18:22;;;;;;;18.05;4.85;;;;;;;30.13;45.77;99935.25;5105998;28;20039;-65
2022/08/26 08:20:47;;;;;;;19.10;5.50;;;;;;;30.25;45.75;99933.09;5105823;28;20035;-67
2022/08/26 08:23:14;;;;;;;15.73;5.18;;;;;;;30.33;45.61;99929.81;5100504;27;20384;-64
2022/08/26 08:25:40;;;;;;;18.90;5.20;;;;;;;30.40;44.90;99932.31;5088972;28;20027;-66
2022/08/26 08:28:05;;;;;;;10.95;4.88;;;;;;;30.40;44.95;99933.16;5090512;28;20032;-65
2022/08/26 08:30:31;;;;;;;14.32;5.13;;;;;;;30.48;44.94;99937.31;5095704;28;20400;-64
2022/08/26 08:32:56;;;;;;;10.93;4.55;;;;;;;30.51;44.46;99932.09;5097887;28;20080;-65
2022/08/26 08:35:25;;;;;;;21.65;4.97;;;;;;;30.53;44.87;99931.78;5094161;28;20020;-64
2022/08/26 08:37:53;;;;;;;31.13;5.65;;;;;;;30.39;44.92;99914.88;5098091;28;20039;-65
2022/08/26 08:40:19;;;;;;;13.95;5.80;;;;;;;30.39;44.97;99917.66;5101303;28;20048;-65
2022/08/26 08:43:38;;;;;;;15.70;4.93;;;;;;;30.41;44.72;99928.47;5103936;28;20028;-66
2022/08/26 08:46:11;;;;;;;12.13;4.80;;;;;;;30.40;45.09;99926.78;5070634;27;20047;-65
2022/08/26 08:48:45;;;;;;;22.50;5.40;;;;;;;30.39;45.21;99920.41;5096630;28;20043;-66
2022/08/26 08:51:16;;;;;;;21.58;5.75;;;;;;;30.48;45.43;99926.25;5104133;27;20026;-65
2022/08/26 08:53:46;;;;;;;19.38;5.35;;;;;;;30.53;44.68;99915.16;5106324;27;20034;-66
2022/08/26 08:56:51;;;;;;;15.32;5.63;;;;;;;30.56;44.58;99917.41;5107456;27;20031;-65
2022/08/26 08:59:27;;;;;;;13.85;5.13;;;;;;;30.67;44.14;99923.78;5104571;28;20760;-66
2022/08/26 09:02:25;;;;;;;9.60;4.22;;;;;;;30.80;43.74;99920.50;5106714;27;20407;-65
2022/08/26 09:05:23;;;;;;;13.05;4.15;;;;;;;30.95;43.49;99917.75;5104832;28;20034;-65
2022/08/26 09:07:57;;;;;;;16.95;5.75;;;;;;;31.09;43.39;99918.84;5104880;28;20629;-66
2022/08/26 09:10:28;;;;;;;13.60;5.38;;;;;;;31.21;43.47;99919.41;5104783;28;20042;-65
2022/08/26 09:12:54;;;;;;;19.15;4.85;;;;;;;31.25;43.61;99907.47;5104581;28;20024;-65
2022/08/26 09:15:27;;;;;;;14.20;5.05;;;;;;;31.40;43.12;99913.00;5104811;28;20035;-67
2022/08/26 09:18:01;;;;;;;14.30;5.15;;;;;;;31.46;43.05;99911.91;5104934;28;20032;-65
2022/08/26 09:20:46;;;;;;;16.77;5.38;;;;;;;31.50;43.04;99903.88;5104594;28;20019;-65
2022/08/26 09:23:13;;;;;;;18.50;5.65;;;;;;;31.59;42.65;99905.75;5104861;28;20027;-65
2022/08/26 09:25:52;;;;;;;19.95;4.95;;;;;;;31.61;42.21;99903.56;5104751;28;20031;-66
2022/08/26 09:28:21;;;;;;;16.70;5.03;;;;;;;31.64;42.24;99904.94;5104151;28;20027;-65
2022/08/26 09:31:18;;;;;;;21.08;5.50;;;;;;;31.66;42.23;99900.75;5103227;28;20485;-66
2022/08/26 09:33:43;;;;;;;12.30;4.32;;;;;;;31.66;41.86;99897.16;5104969;28;20463;-65
2022/08/26 09:36:15;;;;;;;21.13;4.97;;;;;;;31.70;41.67;99910.19;5105582;28;20024;-67
2022/08/26 09:38:42;;;;;;;18.58;5.18;;;;;;;31.72;41.89;99907.94;5103720;28;20039;-66
2022/08/26 09:41:22;;;;;;;18.92;4.30;;;;;;;31.77;41.77;99901.56;5103258;28;20047;-66
2022/08/26 09:44:03;;;;;;;14.23;4.63;;;;;;;31.83;41.82;99901.31;5102809;28;20116;-66
2022/08/26 09:46:29;;;;;;;17.40;5.05;;;;;;;31.86;41.24;99899.91;5101727;28;20042;-66
2022/08/26 09:48:54;;;;;;;13.07;4.97;;;;;;;31.87;41.45;99891.28;5103975;28;20165;-67
2022/08/26 09:51:22;;;;;;;15.50;4.30;;;;;;;31.97;40.93;99899.56;5103964;28;20164;-67
2022/08/26 09:54:00;;;;;;;15.15;4.53;;;;;;;32.03;41.04;99895.66;5104620;28;22054;-65
2022/08/26 09:56:31;;;;;;;18.13;4.65;;;;;;;32.09;40.83;99877.88;5107719;27;20027;-66
2022/08/26 09:58:57;;;;;;;22.00;5.07;;;;;;;32.15;40.73;99887.81;5104425;28;20503;-66
2022/08/26 10:01:37;;;;;;;13.30;4.65;;;;;;;32.27;40.28;99893.03;5111889;27;20027;-66
2022/08/26 10:04:29;;;;;;;20.88;4.88;;;;;;;32.25;39.71;99884.16;5107319;28;20044;-67
2022/08/26 10:07:03;;;;;;;16.40;4.05;;;;;;;32.28;39.39;99887.16;5106983;28;20104;-66
2022/08/26 10:09:34;;;;;;;15.27;4.50;;;;;;;32.32;39.50;99879.94;5108682;28;20039;-65
2022/08/26 10:12:05;;;;;;;17.92;4.20;;;;;;;32.34;39.61;99880.50;5110314;27;20382;-67
2022/08/26 10:14:40;;;;;;;20.67;4.90;;;;;;;32.36;39.64;99872.72;5108244;28;20046;-67
2022/08/26 10:17:28;;;;;;;18.40;4.90;;;;;;;32.42;39.80;99865.19;5105690;28;20031;-66
2022/08/26 10:20:02;;;;;;;15.07;4.32;;;;;;;32.49;39.63;99871.25;5108129;28;20451;-67
2022/08/26 10:22:51;;;;;;;19.23;4.78;;;;;;;32.53;39.98;99866.78;5106899;27;20027;-66
2022/08/26 10:25:24;;;;;;;23.17;4.72;;;;;;;32.59;40.02;99862.84;5107575;28;20031;-65
2022/08/26 10:28:07;;;;;;;16.73;4.90;;;;;;;32.59;39.77;99858.13;5108209;28;20045;-67
2022/08/26 10:30:45;;;;;;;13.10;4.55;;;;;;;32.53;38.96;99845.38;5107978;28;20031;-67
2022/08/26 10:33:14;;;;;;;16.67;4.18;;;;;;;32.59;39.34;99855.34;5107180;28;20044;-66
2022/08/26 10:36:05;;;;;;;20.17;4.78;;;;;;;32.59;39.21;99852.56;5108855;27;20059;-65
2022/08/26 10:38:37;;;;;;;14.32;4.43;;;;;;;32.63;39.04;99848.09;5108214;27;20058;-66
2022/08/26 10:41:11;;;;;;;21.63;4.93;;;;;;;32.65;38.52;99842.25;5107229;28;20048;-65
2022/08/26 10:44:03;;;;;;;18.25;4.43;;;;;;;32.68;38.41;99846.41;5107724;28;20034;-66
2022/08/26 10:46:38;;;;;;;13.98;4.45;;;;;;;32.72;38.67;99841.91;5103443;28;20406;-66
2022/08/26 10:49:16;;;;;;;12.85;4.38;;;;;;;32.75;38.75;99830.22;5106372;28;20032;-66
2022/08/26 10:52:02;;;;;;;13.70;4.30;;;;;;;32.79;38.02;99837.69;5108773;27;20474;-66
2022/08/26 10:55:04;;;;;;;15.93;4.40;;;;;;;32.84;38.10;99837.63;5107305;28;20080;-67
2022/08/26 10:57:33;;;;;;;16.40;4.70;;;;;;;32.90;38.60;99838.44;5089893;28;20486;-66
2022/08/26 11:03:05;;;;;;;17.60;4.60;;;;;;;32.89;37.70;99828.47;5107330;28;20437;-66
2022/08/26 11:05:30;;;;;;;16.90;4.28;;;;;;;32.95;38.11;99835.63;5104728;28;20023;-66
2022/08/26 11:08:28;;;;;;;15.75;4.40;;;;;;;32.99;38.07;99834.75;5106770;27;20030;-66
2022/08/26 11:10:58;;;;;;;18.90;4.78;;;;;;;33.01;37.28;99815.81;5102273;28;20119;-66
2022/08/26 11:13:58;;;;;;;15.63;4.30;;;;;;;33.08;36.91;99819.09;5106872;27;20027;-66
2022/08/26 11:16:40;;;;;;;12.13;4.47;;;;;;;33.13;36.70;99818.19;5106967;28;20033;-67
2022/08/26 11:19:08;;;;;;;15.38;3.90;;;;;;;33.15;35.96;99824.31;5104102;28;20040;-65
2022/08/26 11:22:04;;;;;;;11.88;4.13;;;;;;;33.21;36.19;99814.78;5106758;28;20038;-66
2022/08/26 11:24:52;;;;;;;17.95;4.13;;;;;;;33.24;35.97;99811.41;5106813;28;20473;-66
2022/08/26 11:27:35;;;;;;;18.55;4.68;;;;;;;33.22;35.86;99808.94;5104814;28;20099;-66
2022/08/26 11:30:04;;;;;;;20.58;4.97;;;;;;;33.21;36.22;99800.88;5107416;27;20035;-66
2022/08/26 11:32:54;;;;;;;11.02;4.40;;;;;;;33.29;35.74;99808.56;5102986;28;20055;-67
2022/08/26 11:35:19;;;;;;;14.02;4.28;;;;;;;33.30;36.36;99799.94;5106794;28;20028;-66
2022/08/26 11:37:55;;;;;;;13.02;3.80;;;;;;;33.33;35.26;99806.88;5107288;28;20032;-67
2022/08/26 11:40:25;;;;;;;12.32;4.82;;;;;;;33.25;34.87;99791.66;5108264;27;20083;-66
2022/08/26 11:42:59;;;;;;;15.50;3.78;;;;;;;33.23;34.61;99788.34;5106705;28;20101;-67
2022/08/26 11:45:37;;;;;;;15.95;3.53;;;;;;;33.31;33.94;99798.00;5106770;28;20118;-67
2022/08/26 11:48:19;;;;;;;11.20;3.55;;;;;;;33.29;34.11;99792.72;5106388;28;20592;-66
2022/08/26 11:50:55;;;;;;;11.77;4.10;;;;;;;33.34;34.26;99791.84;5106533;28;20069;-66